createdAt,value
2018-01-03T00:00:38.377Z,22.65
2018-01-03T00:01:51.202Z,22.61
2018-01-03T00:03:04.198Z,22.52
2018-01-03T00:04:16.770Z,22.61
2018-01-03T00:05:29.770Z,22.55
2018-01-03T00:06:42.789Z,22.57
2018-01-03T00:07:55.818Z,22.64
2018-01-03T00:09:08.831Z,22.6
2018-01-03T00:10:21.858Z,22.57
2018-01-03T00:11:34.931Z,22.51
2018-01-03T00:12:47.968Z,22.58
2018-01-03T00:14:01.017Z,22.51
2018-01-03T00:15:14.018Z,22.52
2018-01-03T00:16:27.061Z,22.58
2018-01-03T00:17:40.080Z,22.55
2018-01-03T00:18:53.164Z,22.57
2018-01-03T00:20:06.196Z,22.46
2018-01-03T00:21:19.226Z,22.58
2018-01-03T00:22:32.210Z,22.52
2018-01-03T00:23:45.006Z,22.57
2018-01-03T00:24:58.060Z,22.47
2018-01-03T00:26:10.658Z,22.49
2018-01-03T00:27:23.685Z,22.49
2018-01-03T00:28:36.667Z,22.54
2018-01-03T00:29:49.676Z,22.57
2018-01-03T00:31:02.754Z,22.55
2018-01-03T00:32:15.747Z,22.57
2018-01-03T00:33:28.761Z,22.54
2018-01-03T00:34:41.814Z,22.51
2018-01-03T00:35:54.850Z,22.6
2018-01-03T00:37:07.866Z,22.47
2018-01-03T00:38:20.873Z,22.49
2018-01-03T00:39:33.919Z,22.49
2018-01-03T00:40:46.968Z,22.6
2018-01-03T00:42:00.033Z,22.54
2018-01-03T00:43:13.042Z,22.52
2018-01-03T00:44:26.054Z,22.54
2018-01-03T00:45:39.069Z,22.47
2018-01-03T00:46:52.149Z,22.51
2018-01-03T00:48:05.152Z,22.57
2018-01-03T00:49:18.188Z,22.6
2018-01-03T00:50:31.256Z,22.47
2018-01-03T00:51:44.331Z,22.6
2018-01-03T00:52:57.371Z,22.54
2018-01-03T00:54:10.435Z,22.51
2018-01-03T00:55:23.410Z,22.43
2018-01-03T00:56:36.418Z,22.52
2018-01-03T00:57:49.441Z,22.49
2018-01-03T00:59:02.482Z,22.52
2018-01-03T01:00:15.027Z,22.49
2018-01-03T01:01:28.060Z,22.49
2018-01-03T01:02:40.870Z,22.45
2018-01-03T01:03:53.895Z,22.52
2018-01-03T01:05:06.963Z,22.43
2018-01-03T01:06:19.964Z,22.46
2018-01-03T01:07:33.012Z,22.39
2018-01-03T01:08:46.085Z,22.36
2018-01-03T01:09:59.138Z,22.43
2018-01-03T01:11:12.174Z,22.31
2018-01-03T01:12:25.202Z,22.42
2018-01-03T01:13:38.282Z,22.36
2018-01-03T01:14:51.320Z,22.4
2018-01-03T01:16:04.096Z,22.31
2018-01-03T01:17:17.127Z,22.42
2018-01-03T01:18:30.169Z,22.45
2018-01-03T01:19:43.187Z,22.51
2018-01-03T01:20:56.223Z,22.47
2018-01-03T01:22:09.296Z,22.43
2018-01-03T01:23:22.086Z,22.45
2018-01-03T01:24:35.120Z,22.45
2018-01-03T01:25:47.710Z,22.31
2018-01-03T01:27:00.257Z,22.43
2018-01-03T01:28:13.291Z,22.37
2018-01-03T01:29:26.343Z,22.37
2018-01-03T01:30:39.351Z,22.36
2018-01-03T01:31:52.424Z,22.27
2018-01-03T01:33:05.438Z,22.22
2018-01-03T01:34:18.482Z,22.25
2018-01-03T01:35:31.502Z,22.25
2018-01-03T01:36:44.524Z,22.22
2018-01-03T01:37:57.576Z,22.25
2018-01-03T01:39:10.587Z,22.27
2018-01-03T01:40:23.618Z,22.22
2018-01-03T01:41:36.658Z,22.24
2018-01-03T01:42:49.676Z,22.24
2018-01-03T01:44:02.696Z,22.21
2018-01-03T01:45:15.702Z,22.25
2018-01-03T01:46:28.743Z,22.25
2018-01-03T01:47:41.819Z,22.21
2018-01-03T01:48:54.826Z,22.1
2018-01-03T01:50:07.856Z,22.2
2018-01-03T01:51:20.873Z,22.18
2018-01-03T01:52:33.946Z,22.2
2018-01-03T01:53:46.965Z,22.21
2018-01-03T01:55:00.021Z,22.15
2018-01-03T01:56:13.082Z,22.14
2018-01-03T01:57:26.108Z,22.25
2018-01-03T01:58:39.122Z,22.22
2018-01-03T01:59:52.185Z,22.2
2018-01-03T02:01:05.225Z,22.14
2018-01-03T02:02:18.238Z,22.15
2018-01-03T02:03:31.244Z,22.14
2018-01-03T02:04:44.289Z,22.14
2018-01-03T02:05:57.313Z,22.14
2018-01-03T02:07:10.330Z,22.12
2018-01-03T02:08:23.359Z,22.1
2018-01-03T02:09:56.394Z,22.1
2018-01-03T02:11:09.577Z,22.03
2018-01-03T02:12:22.792Z,22.15
2018-01-03T22:07:11.858Z,22.39
2018-01-03T22:08:25.214Z,22.36
2018-01-03T22:09:38.394Z,22.39
2018-01-03T22:10:51.494Z,22.2
2018-01-03T22:12:04.808Z,22.28
2018-01-03T22:13:17.714Z,22.25
2018-01-03T22:14:30.831Z,22.21
2018-01-03T22:15:43.950Z,22.2
2018-01-03T22:16:57.091Z,22.09
2018-01-03T22:18:09.922Z,22.18
2018-01-03T22:19:23.065Z,22.18
2018-01-03T22:20:36.160Z,22.15
2018-01-03T22:21:49.227Z,22.15
2018-01-03T22:23:02.482Z,22.15
2018-01-03T22:24:15.622Z,22.1
2018-01-03T22:25:28.719Z,22.14
2018-01-03T22:26:41.789Z,22.14
2018-01-03T22:27:54.926Z,22.21
2018-01-03T22:29:08.003Z,22.21
2018-01-03T22:30:21.100Z,22.17
2018-01-03T22:31:34.219Z,22.18
2018-01-03T22:32:47.303Z,22.15
2018-01-03T22:33:59.902Z,22.17
2018-01-03T22:35:12.961Z,22.14
2018-01-03T22:36:26.034Z,22.18
2018-01-03T22:37:39.140Z,22.22
2018-01-03T22:38:52.178Z,22.12
2018-01-03T22:40:05.244Z,22.25
2018-01-03T22:41:18.253Z,22.12
2018-01-03T22:42:31.054Z,22.15
2018-01-03T22:43:44.098Z,22.09
2018-01-03T22:44:57.116Z,22.17
2018-01-03T22:46:10.145Z,22.14
2018-01-03T22:47:23.221Z,22.14
2018-01-03T22:48:36.284Z,22.21
2018-01-03T22:49:48.872Z,22.17
2018-01-03T22:51:01.869Z,22.14
2018-01-03T22:52:14.908Z,22.12
2018-01-03T22:53:27.681Z,22
2018-01-03T22:54:40.702Z,22.02
2018-01-03T22:55:53.756Z,22
2018-01-03T22:57:06.371Z,22.03
2018-01-03T22:58:19.456Z,22
2018-01-03T22:59:32.491Z,22
2018-01-03T23:00:45.309Z,22
2018-01-03T23:01:58.433Z,22
2018-01-03T23:03:11.528Z,22
2018-01-03T23:04:24.551Z,21.98
2018-01-03T23:05:37.607Z,21.96
2018-01-03T23:06:50.605Z,22.02
2018-01-03T23:08:03.611Z,22
2018-01-03T23:09:16.189Z,21.99
2018-01-03T23:10:29.224Z,21.99
2018-01-03T23:11:42.100Z,22
2018-01-03T23:12:55.250Z,22
2018-01-03T23:14:07.408Z,22.05
2018-01-03T23:15:20.510Z,21.94
2018-01-03T23:16:33.522Z,22
2018-01-03T23:17:46.504Z,22.1
2018-01-03T23:18:59.451Z,21.96
2018-01-03T23:20:12.503Z,21.99
2018-01-03T23:21:25.557Z,22.03
2018-01-03T23:22:38.580Z,22.12
2018-01-03T23:23:51.586Z,22.15
2018-01-03T23:25:04.590Z,22.17
2018-01-03T23:26:17.645Z,21.96
2018-01-03T23:27:30.246Z,22.07
2018-01-03T23:28:43.316Z,21.98
2018-01-03T23:29:56.343Z,22.07
2018-01-03T23:31:09.405Z,21.99
2018-01-03T23:32:22.448Z,22.17
2018-01-03T23:33:35.063Z,22.14
2018-01-03T23:34:48.065Z,22.1
2018-01-03T23:36:01.070Z,22.12
2018-01-03T23:37:14.036Z,22
2018-01-03T23:38:27.022Z,22.02
2018-01-03T23:39:40.048Z,22.02
2018-01-03T23:40:53.103Z,21.91
2018-01-03T23:42:06.149Z,21.98
2018-01-03T23:43:19.212Z,21.99
2018-01-03T23:44:32.276Z,21.92
2018-01-03T23:45:45.300Z,21.98
2018-01-03T23:46:58.372Z,22.05
2018-01-03T23:48:11.446Z,22.03
2018-01-03T23:49:24.516Z,22
2018-01-03T23:50:37.548Z,21.92
2018-01-03T23:51:50.580Z,21.92
2018-01-03T23:53:03.688Z,21.96
2018-01-03T23:54:16.508Z,21.99
2018-01-03T23:55:29.601Z,21.91
2018-01-03T23:56:42.642Z,21.9
2018-01-03T23:57:55.690Z,21.88
2018-01-03T23:59:08.694Z,21.91
